createdAt,value
2023-05-04T00:00:22.904Z,14.23
2023-05-04T00:02:53.672Z,16.15
2023-05-04T00:05:24.496Z,15.50
2023-05-04T00:07:54.784Z,13.65
2023-05-04T00:10:25.146Z,13.87
2023-05-04T00:12:56.691Z,16.05
2023-05-04T00:15:27.511Z,17.27
2023-05-04T00:17:58.084Z,15.18
2023-05-04T00:20:28.457Z,17.87
2023-05-04T00:22:58.898Z,16.43
2023-05-04T00:25:29.236Z,14.23
2023-05-04T00:27:59.826Z,18.27
2023-05-04T00:30:30.141Z,20.52
2023-05-04T00:33:02.172Z,14.43
2023-05-04T00:35:34.198Z,12.52
2023-05-04T00:38:09.089Z,12.75
2023-05-04T00:40:40.254Z,12.27
2023-05-04T00:43:11.641Z,12.80
2023-05-04T00:45:44.335Z,13.38
2023-05-04T00:48:14.912Z,14.73
2023-05-04T00:50:45.668Z,16.42
2023-05-04T00:53:16.133Z,18.80
2023-05-04T00:55:46.475Z,12.90
2023-05-04T00:58:17.584Z,10.40
2023-05-04T01:00:48.093Z,15.30
2023-05-04T01:03:18.898Z,14.30
2023-05-04T01:06:18.696Z,16.50
2023-05-04T01:09:13.409Z,12.95
2023-05-04T01:11:54.226Z,16.48
2023-05-04T01:14:25.712Z,19.23
2023-05-04T01:17:00.266Z,12.45
2023-05-04T01:19:31.671Z,14.80
2023-05-04T01:22:02.204Z,15.07
2023-05-04T01:24:33.343Z,14.52
2023-05-04T01:27:19.836Z,16.63
2023-05-04T01:30:08.763Z,13.55
2023-05-04T01:32:41.076Z,13.63
2023-05-04T01:35:14.250Z,20.58
2023-05-04T01:37:44.812Z,25.08
2023-05-04T01:40:15.479Z,23.90
2023-05-04T01:42:46.071Z,20.23
2023-05-04T01:45:16.549Z,26.30
2023-05-04T01:47:47.891Z,20.40
2023-05-04T01:50:18.172Z,14.23
2023-05-04T01:52:49.197Z,14.13
2023-05-04T01:55:20.052Z,16.83
2023-05-04T01:57:50.897Z,13.18
2023-05-04T02:00:22.194Z,19.65
2023-05-04T02:02:52.526Z,18.05
2023-05-04T02:05:23.270Z,17.77
2023-05-04T02:07:53.446Z,33.05
2023-05-04T02:10:24.112Z,15.02
2023-05-04T02:12:54.841Z,14.40
2023-05-04T02:15:26.536Z,14.95
2023-05-04T02:17:56.984Z,16.02
2023-05-04T02:20:27.407Z,14.97
2023-05-04T02:22:57.789Z,16.67
2023-05-04T02:25:29.064Z,21.35
2023-05-04T02:27:59.370Z,17.93
2023-05-04T02:30:29.849Z,19.63
2023-05-04T02:33:01.189Z,17.10
2023-05-04T02:35:32.158Z,16.60
2023-05-04T02:38:03.122Z,15.35
2023-05-04T02:40:33.459Z,19.27
2023-05-04T02:43:03.977Z,16.10
2023-05-04T02:45:38.952Z,13.05
2023-05-04T03:25:06.551Z,362.15
2023-05-04T03:27:36.923Z,350.27
2023-05-04T03:30:08.661Z,347.87
2023-05-04T03:32:40.057Z,348.88
2023-05-04T03:35:10.656Z,342.23
2023-05-04T03:37:41.228Z,320.17
2023-05-04T03:40:11.821Z,323.33
2023-05-04T03:42:43.243Z,323.55
2023-05-04T03:45:14.008Z,311.67
2023-05-04T03:47:44.593Z,311.08
2023-05-04T03:50:15.713Z,304.65
2023-05-04T03:52:46.069Z,312.52
2023-05-04T03:55:16.362Z,299.95
2023-05-04T03:57:51.779Z,298.55
2023-05-04T04:00:22.758Z,302.05
2023-05-04T04:03:01.234Z,295.98
2023-05-04T04:05:32.419Z,300.52
2023-05-04T04:08:03.322Z,295.90
2023-05-04T04:10:34.128Z,283.20
2023-05-04T04:13:05.025Z,297.30
2023-05-04T04:15:35.213Z,300.38
2023-05-04T04:18:05.744Z,308.60
2023-05-04T04:20:36.002Z,288.13
2023-05-04T04:23:06.619Z,291.03
2023-05-04T04:25:36.916Z,293.53
2023-05-04T04:28:07.563Z,307.00
2023-05-04T04:30:38.277Z,297.60
2023-05-04T04:33:08.705Z,298.85
2023-05-04T04:35:39.516Z,307.70
2023-05-04T04:38:10.071Z,289.00
2023-05-04T04:40:40.322Z,315.63
2023-05-04T04:43:10.666Z,298.87
2023-05-04T04:45:43.631Z,297.02
2023-05-04T04:48:13.893Z,305.55
2023-05-04T04:50:44.185Z,306.05
2023-05-04T04:53:14.862Z,299.60
2023-05-04T04:55:45.426Z,311.00
2023-05-04T04:58:16.088Z,286.13
2023-05-04T05:00:47.873Z,302.98
2023-05-04T05:03:18.841Z,297.00
2023-05-04T05:05:49.378Z,305.55
2023-05-04T05:08:19.679Z,305.80
2023-05-04T05:10:50.100Z,311.23
2023-05-04T05:13:20.395Z,305.43
2023-05-04T05:15:50.974Z,309.42
2023-05-04T05:18:21.326Z,305.67
2023-05-04T05:20:51.798Z,297.37
2023-05-04T05:23:22.076Z,302.93
2023-05-04T05:25:52.302Z,301.52
2023-05-04T05:28:22.617Z,302.57
2023-05-04T05:30:54.417Z,315.98
2023-05-04T05:33:24.767Z,311.70
2023-05-04T05:35:55.138Z,308.50
2023-05-04T05:38:25.409Z,306.10
2023-05-04T05:40:55.911Z,307.02
2023-05-04T05:43:25.971Z,315.47
2023-05-04T05:45:56.512Z,297.80
2023-05-04T05:48:27.007Z,318.45
2023-05-04T05:50:57.515Z,311.98
2023-05-04T05:53:27.760Z,314.57
2023-05-04T05:55:58.238Z,295.23
2023-05-04T05:58:28.520Z,304.83
2023-05-04T06:00:58.785Z,311.43
2023-05-04T06:03:29.041Z,306.52
2023-05-04T06:05:59.291Z,300.88
2023-05-04T06:08:29.791Z,354.67
2023-05-04T14:54:06.931Z,12.05
2023-05-04T14:56:37.871Z,12.65
2023-05-04T14:59:08.975Z,11.35
2023-05-04T15:01:39.345Z,12.57
2023-05-04T15:04:09.656Z,9.77
2023-05-04T15:06:40.157Z,14.40
2023-05-04T15:09:11.780Z,9.80
2023-05-04T15:11:42.136Z,9.18
2023-05-04T15:14:12.446Z,10.17
2023-05-04T15:16:43.176Z,11.33
2023-05-04T15:19:13.505Z,10.50
2023-05-04T15:21:44.007Z,9.50
2023-05-04T15:24:14.375Z,10.77
2023-05-04T15:26:45.295Z,9.88
2023-05-04T15:29:15.873Z,11.48
2023-05-04T15:31:46.067Z,14.10
2023-05-04T15:34:18.438Z,10.43
2023-05-04T15:36:49.389Z,10.77
2023-05-04T15:39:19.901Z,14.10
2023-05-04T15:41:50.246Z,9.75
2023-05-04T15:44:23.395Z,11.50
2023-05-04T15:46:53.692Z,10.75
2023-05-04T15:49:24.201Z,12.17
2023-05-04T15:51:55.875Z,10.27
2023-05-04T15:54:26.797Z,11.40
2023-05-04T15:56:57.133Z,10.88
2023-05-04T15:59:27.669Z,10.97
2023-05-04T16:01:58.108Z,10.23
2023-05-04T16:04:28.538Z,10.73
2023-05-04T16:06:59.445Z,11.87
2023-05-04T16:09:30.509Z,12.85
2023-05-04T16:12:00.924Z,10.80
2023-05-04T16:14:31.286Z,9.93
2023-05-04T16:17:04.978Z,12.20
2023-05-04T16:19:35.393Z,8.02
2023-05-04T16:22:05.626Z,10.77
2023-05-04T16:24:36.783Z,9.67
2023-05-04T16:29:36.906Z,8.27
2023-05-04T16:32:07.456Z,10.23
2023-05-04T16:34:37.818Z,8.77
2023-05-04T16:37:10.766Z,9.07
2023-05-04T16:39:41.395Z,10.85
2023-05-04T16:42:11.661Z,9.67
2023-05-04T16:44:42.040Z,8.63
2023-05-04T16:47:12.168Z,13.45
2023-05-04T16:49:42.433Z,6.97
2023-05-04T16:52:12.705Z,10.70
2023-05-04T16:54:43.786Z,9.68
2023-05-04T16:57:14.134Z,13.27
2023-05-04T16:59:44.582Z,9.20
2023-05-04T17:02:14.902Z,10.87
2023-05-04T17:04:46.071Z,8.17
2023-05-04T17:09:46.311Z,9.05
2023-05-04T17:12:17.652Z,9.32
2023-05-04T17:14:48.555Z,10.80
2023-05-04T17:17:18.983Z,11.45
2023-05-04T17:19:49.382Z,10.83
2023-05-04T17:22:19.913Z,9.80
2023-05-04T17:24:50.273Z,8.43
2023-05-04T17:27:20.612Z,11.27
2023-05-04T17:29:50.990Z,11.13
2023-05-04T17:32:21.309Z,10.47
2023-05-04T17:34:51.523Z,9.55
2023-05-04T17:37:21.905Z,10.88
2023-05-04T17:39:52.243Z,8.00
2023-05-04T17:42:22.880Z,7.70
2023-05-04T17:44:53.151Z,10.50
2023-05-04T17:47:23.581Z,10.87
2023-05-04T17:49:53.952Z,12.13
2023-05-04T17:52:24.332Z,8.67
2023-05-04T17:54:56.263Z,11.10
2023-05-04T17:57:26.891Z,9.80
2023-05-04T17:59:57.118Z,9.90
2023-05-04T18:02:27.528Z,8.57
2023-05-04T18:04:57.858Z,12.10
2023-05-04T18:07:28.185Z,10.35
2023-05-04T18:09:59.023Z,9.35
2023-05-04T18:12:29.303Z,9.65
2023-05-04T18:14:59.803Z,9.17
2023-05-04T18:17:31.760Z,9.85
2023-05-04T18:20:02.677Z,11.15
2023-05-04T18:22:33.293Z,7.97
2023-05-04T18:25:03.868Z,10.90
2023-05-04T18:27:35.844Z,12.95
2023-05-04T18:30:07.765Z,11.23
2023-05-04T18:32:38.911Z,10.60
2023-05-04T18:35:09.998Z,10.70
2023-05-04T18:37:40.225Z,10.75
2023-05-04T18:40:11.131Z,9.38
2023-05-04T18:45:13.377Z,11.00
2023-05-04T18:47:43.734Z,11.07
2023-05-04T18:50:14.337Z,7.60
2023-05-04T18:52:44.714Z,10.10
2023-05-04T18:55:15.031Z,9.40
2023-05-04T18:57:45.481Z,10.68
2023-05-04T19:00:16.430Z,10.40
2023-05-04T19:02:46.785Z,11.07
2023-05-04T19:05:17.284Z,9.90
2023-05-04T19:07:47.659Z,9.87
2023-05-04T19:10:17.960Z,8.63
2023-05-04T19:12:48.305Z,10.43
2023-05-04T19:15:18.791Z,11.37
2023-05-04T19:17:49.229Z,10.47
2023-05-04T19:20:19.791Z,8.87
2023-05-04T19:22:50.000Z,9.40
2023-05-04T19:25:33.313Z,9.43
2023-05-04T19:28:11.322Z,8.18
2023-05-04T19:30:42.568Z,10.65
2023-05-04T19:35:42.911Z,13.18
2023-05-04T19:38:13.222Z,13.03
2023-05-04T19:40:43.508Z,7.85
2023-05-04T19:43:13.853Z,9.07
2023-05-04T19:45:44.533Z,10.50
2023-05-04T19:48:17.423Z,9.30
2023-05-04T19:50:47.786Z,11.23
2023-05-04T19:53:18.595Z,12.57
2023-05-04T19:55:50.627Z,9.07
2023-05-04T19:58:20.976Z,10.57
2023-05-04T20:00:51.348Z,11.00
2023-05-04T20:03:21.910Z,13.03
2023-05-04T20:05:54.316Z,12.30
2023-05-04T20:08:24.649Z,10.43
2023-05-04T20:10:54.938Z,10.80
2023-05-04T20:13:25.733Z,12.07
2023-05-04T20:15:56.020Z,11.60
2023-05-04T20:18:26.328Z,10.07
2023-05-04T20:20:56.522Z,11.80
2023-05-04T20:23:26.755Z,11.55
2023-05-04T20:25:57.323Z,12.73
2023-05-04T20:28:27.692Z,12.80
2023-05-04T20:30:58.009Z,12.63
2023-05-04T20:33:28.408Z,10.07
2023-05-04T20:35:59.166Z,9.43
2023-05-04T20:38:29.440Z,12.23
2023-05-04T20:40:59.969Z,12.98
2023-05-04T20:43:30.184Z,10.47
2023-05-04T20:46:00.891Z,14.10
2023-05-04T20:48:31.308Z,11.95
2023-05-04T20:51:13.189Z,15.17
2023-05-04T20:53:44.282Z,12.82
2023-05-04T20:56:14.677Z,12.53
2023-05-04T20:58:45.056Z,12.27
2023-05-04T21:01:15.413Z,12.43
2023-05-04T21:03:45.664Z,17.17
2023-05-04T21:06:16.066Z,11.98
2023-05-04T21:08:46.760Z,13.53
2023-05-04T21:11:17.154Z,14.90
2023-05-04T21:13:48.115Z,12.10
2023-05-04T21:16:18.492Z,15.77
2023-05-04T21:18:48.798Z,12.87
2023-05-04T21:21:19.857Z,13.50
2023-05-04T21:23:50.225Z,14.60
2023-05-04T21:26:20.571Z,11.57
2023-05-04T21:28:50.872Z,15.77
2023-05-04T21:31:22.726Z,12.35
2023-05-04T21:33:54.074Z,16.27
2023-05-04T21:36:25.410Z,14.88
2023-05-04T21:38:57.633Z,14.13
2023-05-04T21:41:28.056Z,11.80
2023-05-04T21:43:58.755Z,13.87
2023-05-04T21:46:29.108Z,10.90
2023-05-04T21:48:59.433Z,13.67
2023-05-04T21:51:30.800Z,13.10
2023-05-04T21:54:01.889Z,13.95
2023-05-04T21:56:32.311Z,13.27
2023-05-04T21:59:02.784Z,14.47
2023-05-04T22:01:33.531Z,14.60
2023-05-04T22:04:03.997Z,12.52
2023-05-04T22:06:34.518Z,18.10
2023-05-04T22:09:05.181Z,11.73
2023-05-04T22:11:35.898Z,13.93
2023-05-04T22:14:06.082Z,13.83
2023-05-04T22:16:36.391Z,12.13
2023-05-04T22:19:06.941Z,17.73
2023-05-04T22:21:39.749Z,14.02
2023-05-04T22:24:10.302Z,13.82
2023-05-04T22:26:41.020Z,12.07
2023-05-04T22:29:11.217Z,12.87
2023-05-04T22:31:41.685Z,15.57
2023-05-04T22:34:11.990Z,15.00
2023-05-04T22:36:43.623Z,12.97
2023-05-04T22:39:14.466Z,13.85
2023-05-04T22:41:44.926Z,13.73
2023-05-04T22:44:15.267Z,15.43
2023-05-04T22:46:45.761Z,18.30
2023-05-04T22:49:16.826Z,15.93
2023-05-04T22:51:49.667Z,15.13
2023-05-04T22:54:20.147Z,14.13
2023-05-04T22:56:50.365Z,16.85
2023-05-04T22:59:20.765Z,16.97
2023-05-04T23:01:52.488Z,17.08
2023-05-04T23:04:23.091Z,16.70
2023-05-04T23:06:53.729Z,18.30
2023-05-04T23:09:23.978Z,17.13
2023-05-04T23:11:57.708Z,16.70
2023-05-04T23:14:27.877Z,16.90
2023-05-04T23:16:58.242Z,15.73
2023-05-04T23:19:28.899Z,18.48
2023-05-04T23:22:02.534Z,18.87
2023-05-04T23:24:32.977Z,20.13
2023-05-04T23:27:03.311Z,18.57
2023-05-04T23:29:33.660Z,19.58
2023-05-04T23:32:04.353Z,17.65
2023-05-04T23:34:34.862Z,17.35
2023-05-04T23:37:05.299Z,20.80
2023-05-04T23:39:35.611Z,20.53
2023-05-04T23:42:05.991Z,19.42
2023-05-04T23:44:36.109Z,25.25
2023-05-04T23:47:06.527Z,22.92
2023-05-04T23:49:36.872Z,20.47
2023-05-04T23:52:08.316Z,21.95
2023-05-04T23:54:38.972Z,20.65
2023-05-04T23:57:12.341Z,19.87
2023-05-04T23:59:42.787Z,26.55
